createdAt,value
2019-03-24T00:00:57.920Z,60.90
2019-03-24T00:03:28.080Z,60.10
2019-03-24T00:05:58.235Z,58.50
2019-03-24T00:08:28.333Z,59.10
2019-03-24T00:10:58.458Z,58.80
2019-03-24T00:13:28.571Z,58.00
2019-03-24T00:15:59.110Z,57.80
2019-03-24T00:18:29.487Z,57.40
2019-03-24T00:20:59.752Z,57.00
2019-03-24T00:23:29.858Z,57.10
2019-03-24T00:26:00.300Z,57.10
2019-03-24T00:28:30.391Z,56.70
2019-03-24T00:31:00.605Z,57.00
2019-03-24T00:33:30.709Z,56.50
2019-03-24T00:36:01.382Z,56.50
2019-03-24T00:38:31.802Z,55.30
2019-03-24T00:41:01.939Z,56.30
2019-03-24T00:43:32.108Z,56.40
2019-03-24T00:46:02.670Z,56.20
2019-03-24T00:48:32.784Z,55.40
2019-03-24T00:51:03.028Z,56.40
2019-03-24T00:53:33.153Z,56.40
2019-03-24T00:56:03.314Z,56.50
2019-03-24T00:58:33.445Z,57.20
2019-03-24T01:01:03.702Z,58.40
2019-03-24T01:03:34.047Z,60.00
2019-03-24T01:06:04.431Z,59.40
2019-03-24T01:08:34.854Z,60.30
2019-03-24T01:11:04.927Z,60.30
2019-03-24T01:13:35.041Z,60.30
2019-03-24T01:16:05.420Z,60.20
2019-03-24T01:18:35.520Z,61.10
2019-03-24T01:21:05.773Z,61.10
2019-03-24T01:23:35.906Z,60.10
2019-03-24T01:26:05.982Z,60.10
2019-03-24T01:28:36.095Z,59.90
2019-03-24T01:31:06.529Z,59.50
2019-03-24T01:33:36.604Z,60.00
2019-03-24T01:36:06.964Z,60.00
2019-03-24T01:38:37.112Z,59.70
2019-03-24T01:41:08.150Z,58.50
2019-03-24T01:43:38.319Z,58.40
2019-03-24T01:46:08.439Z,56.40
2019-03-24T01:48:38.598Z,56.50
2019-03-24T01:51:08.662Z,55.60
2019-03-24T01:53:38.791Z,54.70
2019-03-24T01:56:08.915Z,53.90
2019-03-24T01:58:39.037Z,54.00
2019-03-24T02:01:09.501Z,53.40
2019-03-24T02:03:39.838Z,52.30
2019-03-24T02:06:09.995Z,50.90
2019-03-24T02:08:40.106Z,51.70
2019-03-24T02:11:10.249Z,51.50
2019-03-24T02:13:40.331Z,50.80
2019-03-24T02:16:10.483Z,52.10
2019-03-24T02:18:40.567Z,50.90
2019-03-24T02:21:10.701Z,51.90
2019-03-24T02:23:40.833Z,51.20
2019-03-24T02:26:11.001Z,52.10
2019-03-24T02:28:41.052Z,51.80
2019-03-24T02:31:11.460Z,51.80
2019-03-24T02:33:41.570Z,52.00
2019-03-24T02:36:11.670Z,52.60
2019-03-24T02:38:41.816Z,53.90
2019-03-24T02:41:11.984Z,54.40
2019-03-24T02:43:42.108Z,54.20
2019-03-24T02:46:23.478Z,56.00
2019-03-24T02:48:44.611Z,57.30
2019-03-24T02:51:14.793Z,59.90
2019-03-24T02:53:45.185Z,58.70
2019-03-24T02:56:15.318Z,58.80
2019-03-24T02:58:45.700Z,59.20
2019-03-24T03:01:15.796Z,59.70
2019-03-24T03:03:45.950Z,59.20
2019-03-24T03:06:16.371Z,57.80
2019-03-24T03:08:46.756Z,57.20
2019-03-24T03:11:17.192Z,57.20
2019-03-24T03:13:47.786Z,57.10
2019-03-24T03:16:18.051Z,55.90
2019-03-24T03:18:48.430Z,56.90
2019-03-24T03:21:19.151Z,56.50
2019-03-24T03:23:49.267Z,55.70
2019-03-24T03:26:19.486Z,56.70
2019-03-24T03:28:49.589Z,56.70
2019-03-24T03:31:20.060Z,55.60
2019-03-24T03:33:50.119Z,56.40
2019-03-24T03:36:20.195Z,56.30
2019-03-24T03:38:50.367Z,56.30
2019-03-24T03:41:20.503Z,56.00
2019-03-24T03:43:50.666Z,56.00
2019-03-24T03:46:20.822Z,56.00
2019-03-24T03:48:51.222Z,55.90
2019-03-24T03:51:21.352Z,56.10
2019-03-24T03:53:51.764Z,56.00
2019-03-24T03:56:21.932Z,56.80
2019-03-24T03:58:52.014Z,57.20
2019-03-24T04:01:22.361Z,57.30
2019-03-24T04:03:52.452Z,57.40
2019-03-24T04:06:22.626Z,57.00
2019-03-24T04:08:52.701Z,58.00
2019-03-24T04:11:22.818Z,58.20
2019-03-24T04:13:52.951Z,58.90
2019-03-24T04:16:23.111Z,59.30
2019-03-24T04:18:53.482Z,58.10
2019-03-24T04:21:23.577Z,58.70
2019-03-24T04:23:53.666Z,58.80
2019-03-24T04:26:23.793Z,58.60
2019-03-24T04:28:53.931Z,57.60
2019-03-24T04:31:24.319Z,56.70
2019-03-24T04:33:54.768Z,56.10
2019-03-24T04:36:24.847Z,55.60
2019-03-24T04:38:58.037Z,55.20
2019-03-24T04:41:28.117Z,54.40
2019-03-24T04:43:58.269Z,54.30
2019-03-24T04:46:29.102Z,55.20
2019-03-24T04:48:59.220Z,55.20
2019-03-24T04:51:29.345Z,55.20
2019-03-24T04:53:59.439Z,55.50
2019-03-24T04:56:30.115Z,55.50
2019-03-24T04:59:00.778Z,55.80
2019-03-24T05:01:30.835Z,56.00
2019-03-24T05:04:01.735Z,55.40
2019-03-24T05:06:32.215Z,56.60
2019-03-24T05:09:02.851Z,56.50
2019-03-24T05:11:33.250Z,57.50
2019-03-24T05:14:03.361Z,58.10
2019-03-24T05:16:33.491Z,59.70
2019-03-24T05:19:03.577Z,59.60
2019-03-24T05:21:33.929Z,58.90
2019-03-24T05:24:04.015Z,59.20
2019-03-24T05:26:34.146Z,60.00
2019-03-24T05:29:04.254Z,60.10
2019-03-24T05:31:34.342Z,60.30
2019-03-24T05:34:04.468Z,60.00
2019-03-24T05:36:34.839Z,60.40
2019-03-24T05:39:06.498Z,59.00
2019-03-24T05:41:36.926Z,58.90
2019-03-24T05:44:07.057Z,59.70
2019-03-24T05:46:37.193Z,59.50
2019-03-24T05:49:07.581Z,58.10
2019-03-24T05:51:38.003Z,58.70
2019-03-24T05:54:08.230Z,57.80
2019-03-24T05:56:38.304Z,57.30
2019-03-24T05:59:08.678Z,56.60
2019-03-24T06:01:38.780Z,56.10
2019-03-24T06:04:08.900Z,55.30
2019-03-24T06:06:39.529Z,55.00
2019-03-24T06:09:09.864Z,55.60
2019-03-24T06:11:39.998Z,55.60
2019-03-24T06:14:10.354Z,54.30
2019-03-24T06:16:40.492Z,54.70
2019-03-24T06:19:10.577Z,54.00
2019-03-24T06:21:40.679Z,53.90
2019-03-24T06:24:10.808Z,52.90
2019-03-24T06:26:40.985Z,52.50
2019-03-24T06:29:11.358Z,52.00
2019-03-24T06:31:41.734Z,51.90
2019-03-24T06:34:11.819Z,50.90
2019-03-24T06:36:41.982Z,49.50
2019-03-24T06:39:12.394Z,49.60
2019-03-24T06:41:42.509Z,49.80
2019-03-24T06:44:12.636Z,49.70
2019-03-24T06:46:42.722Z,49.70
2019-03-24T06:49:12.829Z,48.80
2019-03-24T06:51:42.946Z,49.40
2019-03-24T06:54:13.142Z,49.30
2019-03-24T06:56:43.476Z,49.50
2019-03-24T06:59:13.615Z,49.00
2019-03-24T07:01:43.705Z,48.00
2019-03-24T07:04:14.333Z,47.10
2019-03-24T07:06:44.464Z,48.00
2019-03-24T07:09:14.564Z,46.80
2019-03-24T07:11:44.679Z,46.20
2019-03-24T07:14:14.819Z,47.70
2019-03-24T07:16:44.884Z,47.10
2019-03-24T07:19:14.996Z,47.20
2019-03-24T07:21:45.127Z,47.50
2019-03-24T07:24:15.512Z,45.80
2019-03-24T07:26:45.697Z,45.50
2019-03-24T07:29:15.763Z,43.20
2019-03-24T07:31:45.914Z,42.90
2019-03-24T07:34:16.338Z,41.90
2019-03-24T07:36:46.977Z,40.50
2019-03-24T07:39:17.128Z,40.90
2019-03-24T07:41:49.297Z,40.70
2019-03-24T07:44:19.423Z,39.70
2019-03-24T07:46:49.515Z,39.40
2019-03-24T07:49:19.628Z,38.80
2019-03-24T07:51:50.033Z,38.90
2019-03-24T07:54:20.143Z,38.60
2019-03-24T07:56:50.319Z,37.90
2019-03-24T07:59:20.477Z,37.80
2019-03-24T08:01:50.574Z,35.50
2019-03-24T08:04:20.640Z,35.90
2019-03-24T08:06:51.052Z,35.10
2019-03-24T08:09:21.249Z,34.60
2019-03-24T08:11:51.339Z,33.80
2019-03-24T08:14:21.472Z,34.80
2019-03-24T08:16:51.608Z,35.50
2019-03-24T08:19:21.964Z,35.30
2019-03-24T08:21:52.076Z,33.50
2019-03-24T08:24:22.236Z,34.40
2019-03-24T08:26:52.334Z,32.90
2019-03-24T08:29:22.492Z,32.30
2019-03-24T08:31:52.583Z,32.80
2019-03-24T08:34:22.695Z,31.10
2019-03-24T08:36:53.078Z,31.50
2019-03-24T08:39:23.459Z,30.10
2019-03-24T08:41:53.837Z,31.00
2019-03-24T08:44:24.211Z,30.80
2019-03-24T08:46:54.369Z,30.80
2019-03-24T08:49:24.481Z,30.70
2019-03-24T08:51:54.604Z,29.30
2019-03-24T08:54:24.735Z,28.20
2019-03-24T08:56:54.939Z,28.30
2019-03-24T08:59:25.062Z,28.90
2019-03-24T09:01:55.230Z,29.90
2019-03-24T09:04:25.717Z,31.10
2019-03-24T09:06:56.035Z,30.50
2019-03-24T09:09:26.467Z,31.70
2019-03-24T09:11:56.561Z,32.40
2019-03-24T09:14:26.776Z,31.00
2019-03-24T09:16:56.919Z,30.80
2019-03-24T09:19:27.009Z,30.00
2019-03-24T09:21:57.146Z,30.30
2019-03-24T09:24:27.509Z,29.50
2019-03-24T09:26:57.636Z,29.30
2019-03-24T09:29:27.806Z,28.70
2019-03-24T09:31:58.178Z,29.20
2019-03-24T09:34:28.536Z,29.30
2019-03-24T09:36:58.957Z,28.70
2019-03-24T09:39:29.075Z,29.50
2019-03-24T09:41:59.192Z,28.80
2019-03-24T09:44:29.423Z,29.10
2019-03-24T09:46:59.543Z,29.00
2019-03-24T09:49:29.720Z,28.20
2019-03-24T09:52:00.119Z,27.40
2019-03-24T09:54:30.288Z,27.10
2019-03-24T09:57:00.462Z,26.40
2019-03-24T09:59:30.907Z,26.30
2019-03-24T10:02:01.046Z,26.80
2019-03-24T10:04:31.177Z,27.40
2019-03-24T10:07:01.336Z,26.10
2019-03-24T10:09:31.738Z,25.60
2019-03-24T10:12:01.842Z,24.90
2019-03-24T10:14:32.207Z,25.10
2019-03-24T10:17:02.634Z,25.50
2019-03-24T10:19:32.994Z,25.30
2019-03-24T10:22:03.369Z,24.90
2019-03-24T10:24:33.730Z,24.20
2019-03-24T10:27:03.863Z,24.50
2019-03-24T10:29:34.295Z,24.90
2019-03-24T10:32:04.746Z,24.00
2019-03-24T10:34:34.851Z,23.50
2019-03-24T10:37:04.984Z,22.90
2019-03-24T10:39:35.115Z,22.80
2019-03-24T10:42:05.549Z,23.00
2019-03-24T10:44:35.659Z,23.10
2019-03-24T10:47:06.099Z,23.00
2019-03-24T10:49:36.234Z,23.40
2019-03-24T10:52:06.421Z,23.40
2019-03-24T10:54:36.590Z,23.70
2019-03-24T10:57:06.682Z,23.20
2019-03-24T10:59:37.067Z,21.90
2019-03-24T11:02:07.258Z,22.80
2019-03-24T11:04:37.555Z,22.50
2019-03-24T11:07:07.952Z,21.20
2019-03-24T11:09:38.063Z,21.50
2019-03-24T11:12:08.216Z,21.50
2019-03-24T11:14:38.282Z,21.10
2019-03-24T11:17:08.458Z,19.90
2019-03-24T11:19:38.803Z,19.30
2019-03-24T11:22:09.239Z,19.20
2019-03-24T11:24:39.368Z,18.50
2019-03-24T11:27:09.473Z,17.90
2019-03-24T11:29:39.615Z,18.00
2019-03-24T11:32:09.776Z,17.00
2019-03-24T11:34:39.918Z,17.10
2019-03-24T11:37:10.043Z,17.90
2019-03-24T11:39:40.198Z,17.50
2019-03-24T11:42:10.306Z,16.60
2019-03-24T11:44:40.687Z,16.90
2019-03-24T11:47:11.130Z,16.50
2019-03-24T11:49:46.031Z,16.60
2019-03-24T11:52:13.085Z,16.80
2019-03-24T11:54:43.233Z,16.70
2019-03-24T11:57:13.314Z,16.70
2019-03-24T11:59:43.502Z,16.10
2019-03-24T12:02:13.624Z,15.70
2019-03-24T12:04:43.743Z,16.00
2019-03-24T12:07:13.900Z,15.10
2019-03-24T12:09:44.277Z,15.50
2019-03-24T12:12:14.399Z,15.10
2019-03-24T12:14:44.570Z,15.80
2019-03-24T12:17:14.714Z,15.30
2019-03-24T12:19:44.799Z,14.70
2019-03-24T12:22:14.974Z,14.40
2019-03-24T12:24:45.066Z,14.50
2019-03-24T12:27:15.223Z,15.10
2019-03-24T12:29:45.345Z,14.70
2019-03-24T12:32:16.119Z,14.50
2019-03-24T12:34:46.217Z,14.60
2019-03-24T12:37:16.575Z,14.00
2019-03-24T12:39:46.745Z,14.00
2019-03-24T12:42:17.143Z,15.40
2019-03-24T12:44:47.529Z,15.80
2019-03-24T12:47:17.662Z,15.20
2019-03-24T12:49:47.787Z,16.30
2019-03-24T12:52:17.891Z,16.20
2019-03-24T12:54:48.373Z,16.10
2019-03-24T12:57:18.768Z,15.60
2019-03-24T12:59:48.980Z,16.30
2019-03-24T13:02:19.122Z,16.20
2019-03-24T13:04:49.270Z,15.90
2019-03-24T13:07:20.248Z,14.70
2019-03-24T13:09:50.408Z,15.20
2019-03-24T13:12:20.556Z,15.20
2019-03-24T13:14:50.609Z,15.30
2019-03-24T13:17:21.334Z,13.70
2019-03-24T13:19:51.400Z,13.80
2019-03-24T13:22:21.649Z,14.10
2019-03-24T13:24:51.750Z,14.40
2019-03-24T13:27:22.309Z,13.50
2019-03-24T13:29:52.429Z,13.90
2019-03-24T13:32:22.529Z,13.20
2019-03-24T13:34:53.155Z,12.20
2019-03-24T13:37:23.637Z,11.70
2019-03-24T13:39:53.758Z,10.70
2019-03-24T13:42:23.903Z,10.90
2019-03-24T13:44:54.067Z,9.00
2019-03-24T13:47:24.171Z,6.90
2019-03-24T13:49:54.843Z,8.40
2019-03-24T13:52:24.995Z,9.40
2019-03-24T13:54:55.362Z,10.20
2019-03-24T13:57:25.514Z,10.00
2019-03-24T13:59:55.666Z,10.60
2019-03-24T14:02:26.103Z,10.60
2019-03-24T14:04:56.519Z,9.40
2019-03-24T14:07:26.693Z,9.50
2019-03-24T14:09:57.088Z,10.00
2019-03-24T14:12:27.489Z,10.60
2019-03-24T14:14:57.655Z,10.30
2019-03-24T14:17:27.896Z,10.20
2019-03-24T14:19:58.038Z,10.20
2019-03-24T14:22:28.145Z,9.00
2019-03-24T14:24:58.326Z,9.20
2019-03-24T14:27:28.440Z,8.80
2019-03-24T14:29:59.147Z,7.40
2019-03-24T14:32:29.253Z,6.90
2019-03-24T14:34:59.312Z,6.90
2019-03-24T14:37:29.794Z,7.00
2019-03-24T14:39:59.925Z,6.60
2019-03-24T14:42:30.339Z,6.80
2019-03-24T14:45:00.448Z,7.00
2019-03-24T14:47:30.648Z,7.10
2019-03-24T14:50:00.768Z,6.40
2019-03-24T14:52:30.901Z,6.40
2019-03-24T14:55:01.317Z,6.40
2019-03-24T14:57:31.740Z,5.90
2019-03-24T15:00:01.846Z,5.70
2019-03-24T15:02:31.954Z,4.80
2019-03-24T15:05:02.115Z,4.40
2019-03-24T15:07:32.284Z,3.70
2019-03-24T15:10:02.429Z,3.10
2019-03-24T15:12:32.497Z,2.80
2019-03-24T15:15:03.266Z,1.60
2019-03-24T15:17:33.374Z,1.00
2019-03-24T15:20:03.484Z,1.00
2019-03-24T15:22:33.594Z,1.00
2019-03-24T15:25:03.769Z,1.00
2019-03-24T15:27:34.213Z,1.00
2019-03-24T15:30:04.799Z,1.00
2019-03-24T15:32:34.920Z,1.00
2019-03-24T15:35:05.449Z,1.30
2019-03-24T15:37:35.588Z,1.40
2019-03-24T15:40:05.962Z,1.00
2019-03-24T15:42:36.065Z,1.30
2019-03-24T15:45:06.347Z,1.40
2019-03-24T15:47:36.469Z,1.70
2019-03-24T15:50:07.044Z,1.60
2019-03-24T15:52:37.179Z,2.30
2019-03-24T15:55:07.454Z,2.50
2019-03-24T15:57:37.556Z,2.90
2019-03-24T16:00:08.694Z,3.40
2019-03-24T16:02:38.841Z,4.10
2019-03-24T16:05:09.088Z,4.80
2019-03-24T16:07:39.191Z,4.50
2019-03-24T16:10:10.025Z,4.90
2019-03-24T16:12:40.158Z,5.40
2019-03-24T16:15:10.251Z,5.60
2019-03-24T16:17:40.419Z,6.20
2019-03-24T16:20:11.109Z,6.00
2019-03-24T16:22:41.484Z,5.80
2019-03-24T16:25:11.711Z,5.60
2019-03-24T16:27:41.855Z,5.80
2019-03-24T16:30:11.976Z,5.90
2019-03-24T16:32:42.348Z,5.90
2019-03-24T16:35:13.015Z,5.40
2019-03-24T16:37:43.395Z,5.90
2019-03-24T16:40:13.626Z,5.90
2019-03-24T16:42:45.194Z,5.40
2019-03-24T16:45:15.348Z,5.60
2019-03-24T16:47:45.463Z,5.10
2019-03-24T16:50:15.970Z,3.60
2019-03-24T16:52:46.074Z,3.20
2019-03-24T16:55:16.178Z,2.90
2019-03-24T16:57:46.465Z,3.80
2019-03-24T17:00:16.859Z,4.00
2019-03-24T17:02:47.139Z,4.40
2019-03-24T17:05:17.182Z,4.70
2019-03-24T17:07:47.328Z,4.90
2019-03-24T17:10:17.433Z,5.50
2019-03-24T17:12:47.539Z,6.00
2019-03-24T17:15:17.772Z,6.00
2019-03-24T17:17:47.919Z,6.40
2019-03-24T17:20:18.010Z,6.40
2019-03-24T17:22:48.140Z,7.50
2019-03-24T17:25:18.272Z,8.10
2019-03-24T17:27:48.687Z,8.20
2019-03-24T17:30:19.384Z,8.90
2019-03-24T17:32:49.506Z,8.90
2019-03-24T17:35:19.632Z,9.90
2019-03-24T17:37:49.800Z,10.00
2019-03-24T17:40:20.092Z,9.20
2019-03-24T17:42:50.217Z,10.20
2019-03-24T17:45:20.521Z,9.10
2019-03-24T17:47:50.660Z,10.50
2019-03-24T17:50:21.089Z,10.50
2019-03-24T17:52:51.251Z,10.40
2019-03-24T17:55:27.666Z,10.40
2019-03-24T17:57:53.158Z,10.80
2019-03-24T18:00:37.831Z,11.00
2019-03-24T18:03:07.973Z,11.50
2019-03-24T18:05:38.193Z,11.70
2019-03-24T18:08:08.389Z,11.80
2019-03-24T18:10:38.546Z,11.70
2019-03-24T18:13:09.006Z,12.40
2019-03-24T18:15:39.230Z,12.60
2019-03-24T18:18:09.343Z,12.00
2019-03-24T18:20:39.459Z,12.90
2019-03-24T18:23:09.547Z,12.80
2019-03-24T18:25:40.011Z,12.30
2019-03-24T18:28:10.324Z,12.30
2019-03-24T18:30:40.708Z,13.00
2019-03-24T18:33:10.828Z,12.90
2019-03-24T18:35:40.893Z,13.10
2019-03-24T18:38:11.048Z,12.80
2019-03-24T18:40:41.163Z,12.60
2019-03-24T18:43:11.299Z,13.20
2019-03-24T18:45:41.709Z,13.20
2019-03-24T18:48:11.796Z,13.70
2019-03-24T18:50:42.842Z,13.80
2019-03-24T18:53:12.964Z,13.60
2019-03-24T18:55:43.107Z,13.70
2019-03-24T18:58:13.215Z,14.40
2019-03-24T19:00:43.640Z,14.90
2019-03-24T19:03:13.884Z,15.20
2019-03-24T19:05:44.026Z,14.70
2019-03-24T19:08:14.512Z,15.50
2019-03-24T19:10:44.903Z,16.30
2019-03-24T19:13:15.291Z,16.70
2019-03-24T19:15:45.545Z,16.00
2019-03-24T19:18:16.427Z,16.80
2019-03-24T19:20:46.647Z,17.60
2019-03-24T19:23:16.907Z,17.90
2019-03-24T19:25:47.293Z,18.70
2019-03-24T19:28:17.436Z,18.00
2019-03-24T19:30:47.529Z,18.30
2019-03-24T19:33:17.749Z,19.70
2019-03-24T19:35:48.401Z,19.70
2019-03-24T19:38:18.888Z,20.10
2019-03-24T19:40:49.075Z,20.80
2019-03-24T19:43:19.438Z,20.40
2019-03-24T19:45:49.591Z,20.30
2019-03-24T19:48:19.703Z,21.00
2019-03-24T19:50:50.021Z,20.70
2019-03-24T19:53:20.491Z,21.10
2019-03-24T19:55:50.585Z,21.00
2019-03-24T19:58:20.839Z,21.90
2019-03-24T20:00:51.157Z,22.10
2019-03-24T20:03:21.350Z,21.90
2019-03-24T20:05:51.468Z,21.80
2019-03-24T20:08:21.897Z,22.00
2019-03-24T20:10:52.108Z,22.70
2019-03-24T20:13:22.436Z,22.60
2019-03-24T20:15:52.911Z,22.30
2019-03-24T20:18:23.714Z,22.40
2019-03-24T20:20:54.089Z,23.50
2019-03-24T20:23:24.310Z,24.40
2019-03-24T20:25:54.445Z,25.10
2019-03-24T20:28:24.707Z,25.40
2019-03-24T20:30:56.596Z,25.40
2019-03-24T20:33:26.683Z,26.10
2019-03-24T20:35:56.824Z,25.20
2019-03-24T20:38:26.944Z,25.60
2019-03-24T20:40:57.345Z,26.00
2019-03-24T20:43:27.754Z,25.50
2019-03-24T20:45:57.956Z,25.60
2019-03-24T20:48:28.092Z,26.50
2019-03-24T20:50:58.255Z,26.10
2019-03-24T20:53:28.379Z,27.10
2019-03-24T20:55:58.580Z,27.10
2019-03-24T20:58:29.298Z,26.80
2019-03-24T21:00:59.509Z,27.00
2019-03-24T21:03:29.627Z,27.20
2019-03-24T21:05:59.812Z,26.80
2019-03-24T21:08:30.195Z,27.10
2019-03-24T21:11:00.580Z,27.30
2019-03-24T21:13:30.683Z,27.20
2019-03-24T21:16:01.019Z,27.00
2019-03-24T21:18:31.195Z,26.60
2019-03-24T21:21:01.319Z,27.20
2019-03-24T21:23:31.393Z,26.60
2019-03-24T21:26:01.545Z,26.20
2019-03-24T21:28:32.009Z,26.90
2019-03-24T21:31:02.237Z,27.10
2019-03-24T21:33:32.647Z,27.50
2019-03-24T21:36:03.092Z,27.80
2019-03-24T21:38:33.207Z,26.30
2019-03-24T21:41:04.014Z,27.00
2019-03-24T21:43:34.120Z,26.50
2019-03-24T21:46:04.255Z,26.90
2019-03-24T21:48:34.393Z,27.00
2019-03-24T21:51:04.920Z,27.10
2019-03-24T21:53:40.584Z,26.00
2019-03-24T21:56:06.799Z,27.50
2019-03-24T21:58:36.900Z,27.10
2019-03-24T22:01:07.023Z,27.30
2019-03-24T22:03:37.116Z,27.40
2019-03-24T22:06:07.266Z,27.20
2019-03-24T22:08:37.956Z,27.10
2019-03-24T22:11:08.068Z,27.70
2019-03-24T22:13:38.500Z,28.60
2019-03-24T22:16:08.627Z,28.20
2019-03-24T22:18:39.075Z,28.40
2019-03-24T22:21:09.223Z,28.60
2019-03-24T22:23:39.334Z,29.40
2019-03-24T22:26:09.461Z,29.50
2019-03-24T22:28:39.598Z,29.80
2019-03-24T22:31:09.681Z,29.50
2019-03-24T22:33:39.845Z,29.30
2019-03-24T22:36:09.995Z,29.80
2019-03-24T22:38:40.094Z,30.40
2019-03-24T22:41:10.534Z,31.00
2019-03-24T22:43:40.617Z,31.50
2019-03-24T22:46:10.720Z,33.10
2019-03-24T22:48:40.848Z,34.20
2019-03-24T22:51:10.999Z,34.50
2019-03-24T22:53:41.410Z,35.70
2019-03-24T22:56:11.607Z,36.60
2019-03-24T22:58:41.710Z,37.20
2019-03-24T23:01:12.965Z,37.90
2019-03-24T23:03:43.400Z,38.00
2019-03-24T23:06:13.572Z,39.00
2019-03-24T23:08:43.719Z,39.10
2019-03-24T23:11:14.090Z,39.30
2019-03-24T23:13:44.223Z,40.70
2019-03-24T23:16:14.506Z,39.70
2019-03-24T23:18:44.860Z,38.90
2019-03-24T23:21:15.340Z,39.80
2019-03-24T23:23:45.473Z,39.60
2019-03-24T23:26:15.594Z,39.70
2019-03-24T23:28:46.003Z,40.40
2019-03-24T23:31:16.114Z,40.70
2019-03-24T23:33:46.538Z,40.60
2019-03-24T23:36:16.711Z,40.40
2019-03-24T23:38:46.813Z,40.60
2019-03-24T23:41:16.955Z,40.40
2019-03-24T23:43:47.067Z,40.10
2019-03-24T23:46:17.768Z,40.40
2019-03-24T23:48:47.856Z,40.50
2019-03-24T23:51:18.203Z,39.70
2019-03-24T23:53:48.344Z,41.00
2019-03-24T23:56:18.467Z,41.10
2019-03-24T23:58:48.627Z,41.60
